Time;durP1;ratioP1;P1;durP2;ratioP2;P2;SDS_P1;SDS_P2;PMS_P1;PMS_P2;Temp;Humidity;BMP_temperature;BMP_pressure;BME280_temperature;BME280_humidity;BME280_pressure;Samples;Min_cycle;Max_cycle;Signal;HPM_P1;HPM_P2
2022/12/13 00:00:22;;;;;;;11.95;4.62;;;;;;;-1.56;71.10;98678.45;1659392;85;21082;-75
2022/12/13 00:03:08;;;;;;;13.48;5.30;;;;;;;-1.54;71.05;98681.03;1655206;85;21561;-75
2022/12/13 00:05:43;;;;;;;14.87;4.65;;;;;;;-1.56;71.17;98683.97;1659376;85;22493;-75
2022/12/13 00:08:10;;;;;;;10.82;5.03;;;;;;;-1.57;71.15;98678.42;1658823;85;21032;-75
2022/12/13 00:10:38;;;;;;;11.53;4.95;;;;;;;-1.60;71.25;98683.06;1654609;85;21331;-75
2022/12/13 00:13:05;;;;;;;15.18;5.33;;;;;;;-1.59;71.01;98687.34;1662682;85;21010;-76
2022/12/13 00:15:33;;;;;;;9.68;4.72;;;;;;;-1.58;71.20;98692.02;1663510;85;21089;-76
2022/12/13 00:18:00;;;;;;;15.18;5.92;;;;;;;-1.54;71.41;98689.95;1666774;85;21089;-76
2022/12/13 00:20:28;;;;;;;10.60;5.37;;;;;;;-1.51;71.45;98687.44;1651124;85;21041;-75
2022/12/13 00:22:56;;;;;;;9.60;4.90;;;;;;;-1.47;71.42;98691.78;1670643;85;21023;-76
2022/12/13 00:25:42;;;;;;;21.05;6.53;;;;;;;-1.43;71.41;98698.22;1651911;86;21113;-76
2022/12/13 00:28:10;;;;;;;18.02;6.17;;;;;;;-1.42;71.30;98698.65;1671246;85;21030;-75
2022/12/13 00:30:38;;;;;;;16.45;5.90;;;;;;;-1.43;71.20;98689.30;1630909;87;21034;-75
2022/12/13 00:33:07;;;;;;;11.97;5.00;;;;;;;-1.40;71.03;98685.94;1702048;83;21548;-75
2022/12/13 00:35:41;;;;;;;13.95;5.42;;;;;;;-1.34;71.09;98687.73;1676053;83;21048;-75
2022/12/13 00:38:09;;;;;;;14.60;6.03;;;;;;;-1.31;71.19;98680.98;1702093;84;21563;-75
2022/12/13 00:40:37;;;;;;;13.62;5.55;;;;;;;-1.28;71.04;98684.84;1679872;84;21012;-76
2022/12/13 00:43:04;;;;;;;11.83;4.58;;;;;;;-1.25;71.17;98673.86;1679388;84;21011;-75
2022/12/13 00:45:50;;;;;;;8.68;3.98;;;;;;;-1.27;70.81;98679.35;1678544;84;21027;-75
2022/12/13 00:48:17;;;;;;;8.00;3.77;;;;;;;-1.32;70.18;98685.63;1697115;84;21048;-75
2022/12/13 00:50:44;;;;;;;6.87;2.90;;;;;;;-1.27;70.42;98685.73;1682164;84;21001;-75
2022/12/13 00:53:11;;;;;;;7.53;3.50;;;;;;;-1.29;70.00;98685.70;1697262;84;21525;-75
2022/12/13 00:55:42;;;;;;;13.85;3.92;;;;;;;-1.28;70.19;98691.64;1688432;84;21482;-75
2022/12/13 00:58:09;;;;;;;9.78;3.65;;;;;;;-1.32;69.29;98689.88;1677138;84;20984;-75
2022/12/13 01:00:37;;;;;;;7.40;3.55;;;;;;;-1.33;69.33;98694.53;1690868;84;21019;-76
2022/12/13 01:03:19;;;;;;;10.08;3.47;;;;;;;-1.34;69.26;98710.68;1678176;84;21005;-75
2022/12/13 01:05:34;;;;;;;11.33;4.15;;;;;;;-1.34;69.62;98705.58;1685944;84;20988;-75
2022/12/13 01:08:02;;;;;;;8.38;3.52;;;;;;;-1.31;69.14;98708.20;1678141;84;21032;-76
2022/12/13 01:10:30;;;;;;;7.45;4.00;;;;;;;-1.36;69.27;98705.55;1694704;84;21031;-75
2022/12/13 01:12:57;;;;;;;14.03;4.37;;;;;;;-1.36;69.24;98703.42;1682387;84;21044;-75
2022/12/13 01:15:26;;;;;;;11.97;4.67;;;;;;;-1.37;69.62;98708.95;1699475;84;21028;-75
2022/12/13 01:17:53;;;;;;;9.85;4.28;;;;;;;-1.41;69.76;98700.38;1684887;84;21587;-75
2022/12/13 01:20:20;;;;;;;9.00;3.72;;;;;;;-1.40;69.61;98698.26;1675931;84;21000;-75
2022/12/13 01:22:48;;;;;;;12.73;4.25;;;;;;;-1.45;69.03;98704.99;1678852;84;21075;-75
2022/12/13 01:25:16;;;;;;;8.18;4.37;;;;;;;-1.51;69.19;98699.80;1682240;85;20985;-75
2022/12/13 01:27:43;;;;;;;9.00;4.22;;;;;;;-1.48;69.55;98708.75;1672778;84;21090;-75
2022/12/13 01:30:11;;;;;;;6.42;3.50;;;;;;;-1.54;69.36;98703.98;1680151;85;21040;-75
2022/12/13 01:32:38;;;;;;;10.53;4.05;;;;;;;-1.48;69.56;98714.27;1675622;84;21588;-76
2022/12/13 01:35:07;;;;;;;15.43;4.45;;;;;;;-1.52;69.62;98699.34;1677920;85;21699;-75
2022/12/13 01:37:35;;;;;;;9.95;3.98;;;;;;;-1.51;69.67;98707.84;1682074;84;21648;-75
2022/12/13 01:40:03;;;;;;;14.73;4.90;;;;;;;-1.51;69.84;98702.73;1687276;84;21572;-76
2022/12/13 01:42:31;;;;;;;12.75;5.08;;;;;;;-1.54;70.27;98701.00;1680748;84;21107;-75
2022/12/13 01:45:05;;;;;;;11.85;4.87;;;;;;;-1.56;70.35;98701.39;1668741;85;21059;-75
2022/12/13 01:47:44;;;;;;;12.30;4.22;;;;;;;-1.57;70.76;98700.08;1683430;84;21060;-75
2022/12/13 01:50:20;;;;;;;11.93;5.28;;;;;;;-1.60;70.83;98703.03;1673319;85;21576;-75
2022/12/13 01:52:49;;;;;;;9.25;3.80;;;;;;;-1.58;71.37;98704.76;1683698;84;21099;-75
2022/12/13 01:55:19;;;;;;;13.45;5.42;;;;;;;-1.61;71.60;98704.30;1676291;85;21494;-75
2022/12/13 01:57:50;;;;;;;12.88;4.80;;;;;;;-1.67;72.18;98700.34;1687912;84;21021;-75
2022/12/13 02:00:18;;;;;;;10.53;4.42;;;;;;;-1.67;71.85;98711.42;1670974;85;20972;-76
2022/12/13 02:02:47;;;;;;;15.45;5.58;;;;;;;-1.67;72.32;98706.71;1690907;85;21955;-75
2022/12/13 02:05:30;;;;;;;15.03;5.58;;;;;;;-1.69;73.27;98707.10;1667159;85;20981;-75
2022/12/13 02:08:15;;;;;;;14.73;5.60;;;;;;;-1.68;73.28;98707.14;1681613;85;21036;-76
2022/12/13 02:10:43;;;;;;;17.12;5.83;;;;;;;-1.70;73.83;98709.22;1663057;86;20977;-75
2022/12/13 02:13:11;;;;;;;17.50;5.58;;;;;;;-1.73;73.01;98704.06;1681245;85;20993;-76
2022/12/13 02:16:11;;;;;;;15.38;5.40;;;;;;;-1.77;73.42;98702.29;1671730;85;20997;-76
2022/12/13 02:19:00;;;;;;;16.90;7.47;;;;;;;-1.83;74.24;98703.03;1690422;84;20965;-75
2022/12/13 02:21:59;;;;;;;12.13;5.55;;;;;;;-1.86;74.25;98698.75;1642292;86;21072;-75
2022/12/13 02:24:59;;;;;;;10.08;4.97;;;;;;;-1.89;74.64;98693.62;1653377;84;21900;-75
2022/12/13 02:27:35;;;;;;;13.30;6.35;;;;;;;-1.90;74.21;98696.13;1674820;85;21004;-75
2022/12/13 02:30:23;;;;;;;15.88;6.75;;;;;;;-1.94;74.84;98700.72;1678834;85;21020;-75
2022/12/13 02:33:27;;;;;;;13.60;6.12;;;;;;;-1.96;74.83;98701.11;1668622;85;21032;-75
2022/12/13 02:36:17;;;;;;;16.20;5.92;;;;;;;-1.96;75.05;98703.66;1662291;84;21088;-75
2022/12/13 02:39:05;;;;;;;11.55;5.12;;;;;;;-1.99;75.35;98701.89;1678798;85;21072;-76
2022/12/13 02:41:44;;;;;;;16.27;6.15;;;;;;;-2.00;74.55;98701.47;1671648;84;21611;-75
2022/12/13 02:44:29;;;;;;;13.08;6.22;;;;;;;-2.03;74.73;98698.84;1666377;85;20992;-76
2022/12/13 02:47:10;;;;;;;16.50;5.97;;;;;;;-2.08;75.97;98702.59;1670452;85;21016;-75
2022/12/13 02:49:43;;;;;;;14.10;5.58;;;;;;;-2.08;75.44;98705.56;1656024;85;21036;-75
2022/12/13 02:52:15;;;;;;;11.38;4.87;;;;;;;-2.11;76.68;98704.21;1668225;85;21079;-75
2022/12/13 02:54:42;;;;;;;13.00;5.25;;;;;;;-2.08;75.70;98704.29;1683687;85;21536;-75
2022/12/13 02:57:30;;;;;;;11.75;5.60;;;;;;;-2.11;75.33;98697.84;1675500;85;21552;-75
2022/12/13 03:00:11;;;;;;;12.93;5.40;;;;;;;-2.16;76.75;98698.19;1686198;85;21008;-75
2022/12/13 03:03:17;;;;;;;11.48;5.00;;;;;;;-2.21;76.86;98700.23;1674928;84;21052;-75
2022/12/13 03:09:26;;;;;;;12.93;5.72;;;;;;;-2.30;78.33;98697.50;1666473;85;21044;-75
2022/12/13 03:15:35;;;;;;;;;;;;;;;-2.31;79.40;98702.55;1667117;85;21028;-75
2022/12/13 03:18:16;;;;;;;11.75;6.62;;;;;;;-2.32;77.73;98709.34;1673941;84;20150;-75
2022/12/13 03:21:01;;;;;;;13.40;6.00;;;;;;;-2.37;79.63;98716.02;1674987;85;21438;-75
2022/12/13 03:23:29;;;;;;;14.00;5.53;;;;;;;-2.38;78.94;98724.92;1681169;84;21836;-75
2022/12/13 03:26:02;;;;;;;10.30;4.97;;;;;;;-2.38;79.55;98723.64;1681332;84;21551;-75
2022/12/13 03:28:29;;;;;;;12.17;5.40;;;;;;;-2.36;80.49;98730.90;1686071;84;21051;-75
2022/12/13 03:31:16;;;;;;;16.82;6.40;;;;;;;-2.34;79.12;98737.73;1678862;84;21631;-75
2022/12/13 03:33:43;;;;;;;11.45;5.60;;;;;;;-2.32;79.76;98743.72;1681654;84;21682;-76
2022/12/13 03:36:12;;;;;;;15.48;6.30;;;;;;;-2.31;78.75;98741.59;1691422;84;21551;-74
2022/12/13 03:38:40;;;;;;;9.98;4.65;;;;;;;-2.29;78.71;98740.36;1690126;83;21602;-75
2022/12/13 03:41:15;;;;;;;13.15;5.08;;;;;;;-2.23;77.83;98736.66;1692276;84;21564;-75
2022/12/13 03:43:42;;;;;;;15.83;5.40;;;;;;;-2.26;78.03;98741.29;1688775;83;21075;-75
2022/12/13 03:46:11;;;;;;;13.25;5.37;;;;;;;-2.28;78.84;98739.12;1682427;84;21044;-75
2022/12/13 03:48:57;;;;;;;11.68;5.62;;;;;;;-2.27;77.84;98737.43;1692713;84;21998;-75
2022/12/13 03:51:24;;;;;;;11.95;5.40;;;;;;;-2.32;78.21;98738.63;1685848;84;21083;-75
2022/12/13 03:53:52;;;;;;;15.58;6.10;;;;;;;-2.34;78.07;98750.46;1696875;83;21020;-75
2022/12/13 03:56:19;;;;;;;13.95;5.37;;;;;;;-2.36;78.49;98753.39;1673261;84;21039;-75
2022/12/13 03:58:47;;;;;;;9.80;4.12;;;;;;;-2.37;78.44;98756.75;1700634;83;21087;-75
2022/12/13 04:01:16;;;;;;;14.55;6.78;;;;;;;-2.35;77.75;98756.37;1674722;84;21083;-75
2022/12/13 04:03:46;;;;;;;12.73;6.35;;;;;;;-2.35;78.26;98750.42;1701066;84;20996;-76
2022/12/13 04:06:14;;;;;;;21.68;6.83;;;;;;;-2.36;80.01;98753.39;1681384;84;21012;-75
2022/12/13 04:08:42;;;;;;;20.05;6.33;;;;;;;-2.36;80.11;98748.30;1699645;84;21064;-75
2022/12/13 04:13:55;;;;;;;15.48;6.15;;;;;;;-2.35;79.00;98748.73;1699979;84;21040;-75
2022/12/13 04:16:23;;;;;;;13.40;5.45;;;;;;;-2.38;79.99;98759.29;1683687;84;21449;-75
2022/12/13 04:18:51;;;;;;;13.08;5.62;;;;;;;-2.38;79.01;98747.83;1680011;84;21020;-75
2022/12/13 04:21:19;;;;;;;18.70;6.97;;;;;;;-2.35;78.90;98752.55;1685382;83;21040;-76
2022/12/13 04:23:46;;;;;;;14.93;6.12;;;;;;;-2.37;79.98;98759.72;1670541;83;21068;-75
2022/12/13 04:26:14;;;;;;;13.30;5.47;;;;;;;-2.36;79.21;98758.48;1677574;84;21064;-75
2022/12/13 04:28:41;;;;;;;14.03;5.87;;;;;;;-2.39;79.82;98755.86;1667427;85;21053;-75
2022/12/13 04:31:09;;;;;;;15.18;6.78;;;;;;;-2.37;79.54;98770.75;1681478;84;21687;-75
2022/12/13 04:33:36;;;;;;;16.25;6.15;;;;;;;-2.40;79.54;98771.55;1668380;85;21683;-76
2022/12/13 04:36:05;;;;;;;15.38;6.78;;;;;;;-2.41;79.75;98777.88;1684849;85;21671;-75
2022/12/13 04:38:32;;;;;;;10.03;5.50;;;;;;;-2.38;79.81;98779.23;1670482;85;21056;-76
2022/12/13 04:41:10;;;;;;;13.72;6.45;;;;;;;-2.38;79.55;98779.23;1687190;85;21130;-75
2022/12/13 04:43:37;;;;;;;13.88;5.95;;;;;;;-2.35;79.67;98792.02;1666874;85;21454;-75
2022/12/13 04:46:24;;;;;;;13.93;6.45;;;;;;;-2.33;79.74;98795.45;1677134;85;22298;-75
2022/12/13 04:48:51;;;;;;;18.10;6.37;;;;;;;-2.29;78.65;98801.09;1674790;85;21524;-76
2022/12/13 04:51:19;;;;;;;18.32;6.05;;;;;;;-2.29;79.05;98809.11;1688527;84;21033;-76
2022/12/13 04:53:46;;;;;;;17.25;6.95;;;;;;;-2.27;79.26;98810.01;1670727;85;21063;-75
2022/12/13 04:56:14;;;;;;;18.82;7.40;;;;;;;-2.26;79.20;98812.59;1680688;85;21020;-75
2022/12/13 04:58:41;;;;;;;19.40;8.13;;;;;;;-2.23;79.35;98818.16;1675737;85;21044;-75
2022/12/13 05:01:10;;;;;;;16.02;6.47;;;;;;;-2.21;79.29;98813.95;1680905;84;21024;-75
2022/12/13 05:03:38;;;;;;;16.15;6.60;;;;;;;-2.17;79.51;98815.73;1678440;84;21001;-75
2022/12/13 05:06:09;;;;;;;20.20;7.28;;;;;;;-2.19;79.58;98814.84;1684196;84;21001;-76
2022/12/13 05:08:44;;;;;;;20.92;9.28;;;;;;;-2.16;79.80;98808.56;1790287;78;22985;-76
2022/12/13 05:11:11;;;;;;;18.25;7.05;;;;;;;-2.28;80.56;98796.42;1751476;80;21027;-75
2022/12/13 05:13:38;;;;;;;18.92;6.47;;;;;;;-2.25;79.22;98802.87;1751303;80;21057;-75
2022/12/13 05:16:07;;;;;;;22.25;9.35;;;;;;;-2.27;79.61;98801.98;1756679;80;20980;-75
2022/12/13 05:18:35;;;;;;;18.17;6.83;;;;;;;-2.38;80.75;98800.88;1726101;81;21003;-75
2022/12/13 05:21:05;;;;;;;16.97;6.58;;;;;;;-2.37;79.63;98805.13;1727619;81;20955;-75
2022/12/13 05:23:33;;;;;;;16.55;7.58;;;;;;;-2.40;79.85;98802.53;1754153;81;20998;-75
2022/12/13 05:25:59;;;;;;;20.97;8.33;;;;;;;-2.43;80.55;98803.72;1718482;81;21637;-75
2022/12/13 05:28:28;;;;;;;22.48;8.60;;;;;;;-2.43;80.49;98813.52;1683435;83;21007;-75
2022/12/13 05:31:10;;;;;;;23.98;10.15;;;;;;;-2.48;80.99;98828.23;1696668;83;21589;-75
2022/12/13 05:33:36;;;;;;;19.25;7.22;;;;;;;-2.51;81.68;98825.60;1705069;83;21479;-75
2022/12/13 05:36:05;;;;;;;22.10;8.75;;;;;;;-2.54;82.31;98830.64;1701536;83;21050;-75
2022/12/13 05:38:51;;;;;;;23.25;9.25;;;;;;;-2.53;82.21;98829.80;1704389;83;21027;-75
2022/12/13 05:41:36;;;;;;;21.85;8.25;;;;;;;-2.56;82.37;98822.11;1704837;83;21059;-75
2022/12/13 05:44:03;;;;;;;20.50;8.15;;;;;;;-2.52;81.32;98824.75;1726637;83;21031;-75
2022/12/13 05:46:29;;;;;;;26.00;8.63;;;;;;;-2.58;82.83;98830.13;1718483;81;21085;-75
2022/12/13 05:48:56;;;;;;;17.30;7.20;;;;;;;-2.60;83.12;98835.17;1725908;83;21094;-75
2022/12/13 05:51:24;;;;;;;23.95;6.97;;;;;;;-2.60;82.87;98831.36;1717836;81;21026;-75
2022/12/13 05:53:50;;;;;;;21.20;8.60;;;;;;;-2.57;81.81;98832.69;1742687;81;21058;-75
2022/12/13 05:56:17;;;;;;;25.05;8.45;;;;;;;-2.55;81.99;98834.85;1730577;81;21026;-76
2022/12/13 05:58:44;;;;;;;22.02;7.87;;;;;;;-2.56;82.23;98848.84;1744965;81;21014;-75
2022/12/13 06:01:14;;;;;;;27.07;8.08;;;;;;;-2.58;82.10;98840.31;1739272;81;21016;-75
2022/12/13 06:03:41;;;;;;;25.23;9.73;;;;;;;-2.60;82.62;98848.75;1744424;81;21077;-75
2022/12/13 06:06:09;;;;;;;21.50;8.40;;;;;;;-2.63;83.14;98841.45;1744096;81;21574;-76
2022/12/13 06:08:36;;;;;;;20.68;8.48;;;;;;;-2.62;82.68;98841.50;1681815;83;21099;-75
2022/12/13 06:11:05;;;;;;;18.10;6.62;;;;;;;-2.60;82.73;98847.48;1676927;84;21023;-75
2022/12/13 06:13:32;;;;;;;21.42;6.95;;;;;;;-2.53;81.88;98855.25;1680939;84;21027;-75
2022/12/13 06:16:04;;;;;;;17.73;6.30;;;;;;;-2.60;81.78;98844.08;1670542;84;21718;-75
2022/12/13 06:18:34;;;;;;;16.12;6.92;;;;;;;-2.53;81.42;98854.84;1679448;84;21074;-76
2022/12/13 06:21:05;;;;;;;20.70;7.80;;;;;;;-2.51;81.80;98854.88;1669952;84;21098;-75
2022/12/13 06:23:33;;;;;;;18.62;7.83;;;;;;;-2.45;81.65;98861.38;1679952;84;21045;-75
2022/12/13 06:26:05;;;;;;;18.98;7.80;;;;;;;-2.45;82.50;98862.27;1697728;84;21071;-75
2022/12/13 06:28:32;;;;;;;18.48;8.55;;;;;;;-2.40;81.66;98872.13;1684889;84;20999;-75
2022/12/13 06:31:01;;;;;;;20.75;8.68;;;;;;;-2.34;81.17;98873.10;1670634;84;21098;-76
2022/12/13 06:33:28;;;;;;;41.53;15.00;;;;;;;-2.34;81.84;98874.38;1675699;84;21583;-75
2022/12/13 06:35:56;;;;;;;34.73;12.45;;;;;;;-2.36;81.95;98878.58;1708183;82;21016;-75
2022/12/13 06:38:42;;;;;;;147.07;36.85;;;;;;;-2.34;81.51;98879.05;1723241;82;21616;-75
2022/12/13 06:41:15;;;;;;;73.25;22.27;;;;;;;-2.30;81.54;98876.16;1709168;82;22286;-75
2022/12/13 06:43:43;;;;;;;;;;;;;;;-2.31;81.54;98878.25;1721355;82;21040;-75
2022/12/13 06:46:10;;;;;;;34.10;12.40;;;;;;;-2.29;81.35;98878.75;1708753;82;20141;-75
2022/12/13 06:48:56;;;;;;;27.37;10.60;;;;;;;-2.30;81.79;98888.48;1713797;82;21048;-75
2022/12/13 06:51:23;;;;;;;25.82;9.85;;;;;;;-2.26;81.45;98891.95;1719627;82;21071;-75
2022/12/13 06:53:50;;;;;;;23.55;9.70;;;;;;;-2.25;81.13;98885.63;1733078;82;20996;-75
2022/12/13 06:56:17;;;;;;;27.17;11.15;;;;;;;-2.22;81.49;98887.38;1714130;82;21072;-75
2022/12/13 06:58:43;;;;;;;24.52;8.78;;;;;;;-2.18;81.17;98890.44;1715439;82;20984;-75
2022/12/13 07:01:14;;;;;;;27.02;9.78;;;;;;;-2.16;81.08;98886.24;1715804;82;22031;-75
2022/12/13 07:03:41;;;;;;;18.20;7.25;;;;;;;-2.11;80.85;98883.78;1719286;82;20988;-75
2022/12/13 07:06:15;;;;;;;17.10;7.60;;;;;;;-2.08;80.63;98887.69;1719462;82;20984;-76
2022/12/13 07:08:46;;;;;;;23.55;8.90;;;;;;;-2.03;80.40;98891.17;1725214;82;21044;-75
2022/12/13 07:11:32;;;;;;;21.70;8.13;;;;;;;-2.02;80.48;98894.19;1740553;82;21075;-75
2022/12/13 07:14:01;;;;;;;18.05;7.70;;;;;;;-2.00;80.25;98895.94;1743759;82;21079;-75
2022/12/13 07:16:28;;;;;;;18.62;8.03;;;;;;;-1.95;80.17;98892.23;1726582;82;21591;-76
2022/12/13 07:18:57;;;;;;;20.43;8.48;;;;;;;-1.95;79.82;98891.34;1716578;82;21055;-76
2022/12/13 07:21:25;;;;;;;19.48;8.03;;;;;;;-1.94;79.60;98886.30;1725960;81;21071;-75
2022/12/13 07:23:52;;;;;;;25.68;7.80;;;;;;;-1.93;79.38;98894.41;1741960;82;21039;-76
2022/12/13 07:26:19;;;;;;;21.00;6.87;;;;;;;-1.89;79.23;98894.91;1725125;81;21090;-76
2022/12/13 07:28:46;;;;;;;19.07;7.53;;;;;;;-1.83;79.17;98897.97;1725775;82;21016;-76
2022/12/13 07:31:14;;;;;;;18.67;6.78;;;;;;;-1.76;79.18;98905.36;1727483;82;21063;-76
2022/12/13 07:33:41;;;;;;;21.82;8.08;;;;;;;-1.70;79.00;98907.61;1737861;82;21007;-76
2022/12/13 07:36:20;;;;;;;25.02;8.70;;;;;;;-1.69;78.96;98899.54;1724952;82;21531;-75
2022/12/13 07:38:56;;;;;;;15.40;6.70;;;;;;;-1.65;78.44;98894.95;1716401;82;20995;-75
2022/12/13 07:41:25;;;;;;;17.37;8.25;;;;;;;-1.63;77.92;98898.42;1718095;82;21579;-76
2022/12/13 07:43:55;;;;;;;14.63;7.28;;;;;;;-1.60;77.83;98908.66;1739932;82;21040;-75
2022/12/13 07:46:22;;;;;;;23.12;9.03;;;;;;;-1.52;78.15;98914.77;1725126;82;20972;-75
2022/12/13 07:48:48;;;;;;;26.27;10.18;;;;;;;-1.49;77.77;98917.79;1729701;82;21015;-76
2022/12/13 07:51:34;;;;;;;29.48;8.05;;;;;;;-1.48;77.55;98910.18;1717853;82;21099;-75
2022/12/13 07:54:01;;;;;;;27.42;9.03;;;;;;;-1.42;77.11;98919.65;1716935;82;21051;-76
2022/12/13 07:56:28;;;;;;;18.23;9.83;;;;;;;-1.38;75.91;98914.20;1718491;82;21020;-77
2022/12/13 07:58:54;;;;;;;17.50;8.03;;;;;;;-1.30;75.76;98916.48;1726012;82;21059;-76
2022/12/13 08:01:21;;;;;;;19.45;7.20;;;;;;;-1.25;76.53;98918.30;1716188;82;20984;-76
2022/12/13 08:03:48;;;;;;;14.00;5.40;;;;;;;-1.18;75.49;98919.69;1724983;82;21028;-75
2022/12/13 08:06:14;;;;;;;11.05;5.50;;;;;;;-1.16;73.81;98921.42;1734223;82;20996;-75
2022/12/13 08:08:41;;;;;;;15.90;5.67;;;;;;;-1.10;74.20;98914.30;1740269;82;21067;-76
2022/12/13 08:11:12;;;;;;;12.98;5.53;;;;;;;-1.08;71.81;98923.70;1722957;81;21007;-76
2022/12/13 08:13:39;;;;;;;14.58;5.95;;;;;;;-1.03;73.46;98924.66;1734020;82;20996;-75
2022/12/13 08:16:09;;;;;;;9.05;4.35;;;;;;;-0.97;73.04;98925.20;1726704;82;21046;-75
2022/12/13 08:18:38;;;;;;;10.08;4.55;;;;;;;-0.91;71.68;98928.28;1728016;82;20980;-76
2022/12/13 08:21:08;;;;;;;12.63;4.78;;;;;;;-0.86;71.87;98928.78;1710983;80;20990;-76
2022/12/13 08:23:35;;;;;;;9.95;4.35;;;;;;;-0.84;69.63;98930.09;1646163;84;21530;-75
2022/12/13 08:26:04;;;;;;;14.55;4.62;;;;;;;-0.83;69.18;98932.67;1645292;86;21085;-76
2022/12/13 08:28:32;;;;;;;9.43;3.95;;;;;;;-0.79;68.61;98932.75;1644631;86;21082;-75
2022/12/13 08:31:10;;;;;;;7.92;2.92;;;;;;;-0.69;69.53;98929.09;1644661;86;21331;-75
2022/12/13 08:33:39;;;;;;;11.12;3.62;;;;;;;-0.65;70.20;98933.84;1643740;86;21045;-75
2022/12/13 08:36:15;;;;;;;11.00;4.03;;;;;;;-0.60;68.79;98929.65;1654804;85;21119;-76
2022/12/13 08:38:42;;;;;;;11.85;4.25;;;;;;;-0.58;67.89;98929.26;1648714;86;21186;-75
2022/12/13 08:41:09;;;;;;;11.88;3.65;;;;;;;-0.53;67.58;98922.55;1641586;86;21022;-76
2022/12/13 08:43:36;;;;;;;7.40;3.40;;;;;;;-0.49;66.61;98920.48;1643747;86;21030;-75
2022/12/13 08:46:04;;;;;;;8.25;3.85;;;;;;;-0.49;65.98;98915.80;1652954;85;21018;-76
2022/12/13 08:48:31;;;;;;;10.38;3.05;;;;;;;-0.37;66.46;98918.97;1654458;85;21105;-76
2022/12/13 08:51:03;;;;;;;11.88;4.20;;;;;;;-0.32;65.68;98920.77;1656941;86;21018;-75
2022/12/13 08:53:29;;;;;;;6.20;2.87;;;;;;;-0.30;65.21;98920.38;1646946;86;20990;-75
2022/12/13 08:56:02;;;;;;;7.60;3.40;;;;;;;-0.25;66.57;98923.84;1641621;86;21005;-76
2022/12/13 08:58:28;;;;;;;7.40;2.83;;;;;;;-0.20;62.88;98926.45;1645953;85;21000;-76
2022/12/13 09:00:56;;;;;;;7.80;3.15;;;;;;;-0.17;62.95;98927.80;1614410;87;21543;-76
2022/12/13 09:03:23;;;;;;;4.08;1.87;;;;;;;-0.13;63.09;98919.77;1647621;86;20993;-75
2022/12/13 09:05:49;;;;;;;5.28;2.10;;;;;;;-0.09;62.59;98913.44;1647009;85;21050;-75
2022/12/13 09:08:17;;;;;;;10.00;3.60;;;;;;;-0.08;62.02;98910.45;1639461;86;21065;-75
2022/12/13 09:10:44;;;;;;;7.20;2.50;;;;;;;-0.14;61.82;98907.41;1684556;84;22064;-76
2022/12/13 09:13:12;;;;;;;15.65;3.10;;;;;;;-0.12;61.55;98912.52;1681486;83;21190;-75
2022/12/13 09:15:39;;;;;;;7.28;2.85;;;;;;;-0.10;61.51;98903.19;1688000;84;20987;-76
2022/12/13 09:18:06;;;;;;;6.20;2.98;;;;;;;-0.10;61.73;98898.95;1694714;83;21049;-76
2022/12/13 09:20:36;;;;;;;6.72;3.37;;;;;;;-0.03;61.98;98899.47;1683568;83;21028;-75
2022/12/13 09:23:03;;;;;;;5.95;2.87;;;;;;;-0.09;60.89;98893.42;1663261;84;21068;-78
2022/12/13 09:25:31;;;;;;;9.33;3.45;;;;;;;-0.08;61.59;98892.56;1658493;84;21562;-75
2022/12/13 09:28:00;;;;;;;7.62;3.15;;;;;;;-0.11;60.57;98896.37;1669102;84;21041;-76
2022/12/13 09:30:27;;;;;;;7.50;3.40;;;;;;;-0.06;61.41;98897.28;1667013;84;21013;-76
2022/12/13 09:32:55;;;;;;;7.53;2.90;;;;;;;-0.02;61.26;98901.59;1669861;84;20972;-75
2022/12/13 09:35:21;;;;;;;9.75;4.28;;;;;;;0.02;61.56;98895.72;1666112;84;21001;-75
2022/12/13 09:37:48;;;;;;;8.60;3.58;;;;;;;0.06;61.03;98894.92;1662209;85;21064;-75
2022/12/13 09:40:23;;;;;;;7.60;3.42;;;;;;;0.10;59.54;98897.07;1666411;86;21076;-76
2022/12/13 09:42:53;;;;;;;8.08;3.60;;;;;;;0.09;60.47;98899.20;1665171;86;21044;-75
2022/12/13 09:45:21;;;;;;;11.63;3.60;;;;;;;0.18;60.51;98897.63;1662425;84;21110;-75
2022/12/13 09:48:06;;;;;;;7.60;2.90;;;;;;;0.19;60.17;98886.98;1662656;86;21458;-76
2022/12/13 09:50:35;;;;;;;11.57;4.37;;;;;;;0.22;60.88;98892.15;1632231;86;21048;-75
2022/12/13 09:53:05;;;;;;;6.83;2.75;;;;;;;0.22;60.28;98892.15;1667315;86;21049;-75
2022/12/13 09:55:51;;;;;;;7.10;3.87;;;;;;;0.23;59.00;98892.57;1667217;86;21688;-75
2022/12/13 09:58:30;;;;;;;8.98;3.33;;;;;;;0.25;59.20;98895.16;1672104;85;21377;-76
2022/12/13 10:00:58;;;;;;;8.90;3.30;;;;;;;0.25;59.72;98890.05;1663547;86;21021;-74
2022/12/13 10:03:26;;;;;;;12.85;3.62;;;;;;;0.30;59.87;98896.05;1665399;86;21055;-75
2022/12/13 10:06:01;;;;;;;6.72;3.15;;;;;;;0.29;59.08;98892.65;1669378;86;22178;-74
2022/12/13 10:08:40;;;;;;;8.65;2.77;;;;;;;0.38;60.71;98885.11;1662562;84;21148;-76
2022/12/13 10:11:06;;;;;;;8.15;3.37;;;;;;;0.40;59.87;98883.85;1663912;86;21498;-75
2022/12/13 10:14:05;;;;;;;6.62;2.77;;;;;;;0.40;59.50;98897.92;1668855;84;21020;-76
2022/12/13 10:16:42;;;;;;;8.30;3.60;;;;;;;0.50;60.27;98889.94;1659960;86;21071;-75
2022/12/13 10:19:21;;;;;;;10.45;3.37;;;;;;;0.52;58.82;98882.72;1652483;86;21053;-75
2022/12/13 10:21:48;;;;;;;11.75;3.83;;;;;;;0.55;59.17;98891.69;1661456;84;20993;-75
2022/12/13 10:24:29;;;;;;;7.53;3.30;;;;;;;0.58;59.70;98887.05;1671409;84;20972;-75
2022/12/13 10:26:59;;;;;;;6.83;2.95;;;;;;;0.52;58.90;98875.04;1668117;84;21032;-75
2022/12/13 10:29:25;;;;;;;8.23;4.10;;;;;;;0.67;59.61;98882.45;1667439;84;21031;-75
2022/12/13 10:31:52;;;;;;;7.97;3.27;;;;;;;0.69;59.10;98880.76;1641661;86;21015;-76
2022/12/13 10:34:28;;;;;;;10.55;3.62;;;;;;;0.71;59.72;98870.12;1681920;84;20968;-75
2022/12/13 10:36:55;;;;;;;10.35;2.98;;;;;;;0.67;57.75;98873.48;1636692;87;21012;-75
2022/12/13 10:39:42;;;;;;;5.97;2.92;;;;;;;0.70;58.79;98874.38;1668849;86;21494;-75
2022/12/13 10:42:16;;;;;;;10.00;2.80;;;;;;;0.72;58.05;98873.13;1664961;86;21123;-76
2022/12/13 10:44:43;;;;;;;9.75;3.87;;;;;;;0.78;57.78;98875.33;1672493;84;21055;-75
2022/12/13 10:47:18;;;;;;;5.85;2.60;;;;;;;0.89;58.35;98875.85;1673807;84;21068;-75
2022/12/13 10:49:57;;;;;;;7.55;3.20;;;;;;;0.87;58.41;98871.98;1672689;84;21475;-76
2022/12/13 10:52:35;;;;;;;14.20;4.12;;;;;;;0.84;57.72;98867.28;1665394;84;21055;-75
2022/12/13 10:55:06;;;;;;;12.35;3.80;;;;;;;0.93;57.78;98864.37;1642019;86;21463;-76
2022/12/13 10:57:33;;;;;;;11.35;3.02;;;;;;;0.89;58.15;98871.58;1670957;84;21073;-76
2022/12/13 11:00:00;;;;;;;6.87;3.15;;;;;;;0.89;57.52;98872.86;1679141;84;21036;-75
2022/12/13 11:02:36;;;;;;;3.35;1.90;;;;;;;0.95;57.95;98872.07;1669035;84;21985;-75
2022/12/13 11:05:26;;;;;;;7.30;3.22;;;;;;;0.99;57.67;98864.86;1670608;84;21043;-75
2022/12/13 11:07:56;;;;;;;6.17;2.67;;;;;;;0.99;57.46;98867.02;1668255;84;21070;-75
2022/12/13 11:10:27;;;;;;;8.57;3.37;;;;;;;0.94;56.49;98868.66;1671465;84;21020;-75
2022/12/13 11:13:03;;;;;;;14.28;3.15;;;;;;;0.94;56.29;98867.81;1679357;84;21035;-75
2022/12/13 11:15:34;;;;;;;6.97;2.87;;;;;;;0.98;57.11;98870.41;1675973;84;20944;-75
2022/12/13 11:18:05;;;;;;;10.65;2.70;;;;;;;0.99;57.46;98863.17;1669274;84;21039;-75
2022/12/13 11:20:43;;;;;;;6.20;3.12;;;;;;;0.98;57.11;98870.41;1678078;84;21022;-77
2022/12/13 11:23:30;;;;;;;8.68;3.22;;;;;;;0.96;56.40;98865.69;1665478;84;21079;-76
2022/12/13 11:26:02;;;;;;;10.28;4.00;;;;;;;1.01;58.01;98862.31;1656723;84;21003;-75
2022/12/13 11:28:52;;;;;;;7.80;3.30;;;;;;;1.06;57.74;98865.80;1660698;86;21590;-75
2022/12/13 11:31:42;;;;;;;6.20;3.00;;;;;;;1.12;56.72;98870.53;1662294;86;22054;-76
2022/12/13 11:34:52;;;;;;;7.37;3.62;;;;;;;1.12;57.61;98870.97;1658891;86;21079;-76
2022/12/13 11:37:45;;;;;;;5.87;2.27;;;;;;;1.05;55.82;98863.63;1666253;86;22039;-75
2022/12/13 11:40:35;;;;;;;8.45;3.80;;;;;;;1.18;57.14;98869.73;1661425;86;22336;-75
2022/12/13 11:43:16;;;;;;;7.05;3.25;;;;;;;1.13;56.66;98859.43;1656125;86;21043;-76
2022/12/13 11:45:48;;;;;;;10.72;4.55;;;;;;;1.11;57.45;98859.84;1662291;86;21964;-75
2022/12/13 11:48:43;;;;;;;15.98;6.70;;;;;;;1.09;57.71;98865.80;1660230;86;21500;-76
2022/12/13 11:51:14;;;;;;;14.47;5.83;;;;;;;1.23;57.70;98860.80;1666677;86;21020;-76
2022/12/13 11:54:00;;;;;;;11.57;5.47;;;;;;;1.81;56.71;98865.50;1662174;86;22225;-76
2022/12/13 11:56:37;;;;;;;9.08;4.25;;;;;;;2.14;54.84;98860.56;1662248;86;21600;-76
2022/12/13 11:59:45;;;;;;;10.20;5.03;;;;;;;2.50;54.09;98850.03;1663437;86;21690;-76
2022/12/13 12:02:30;;;;;;;10.40;4.60;;;;;;;2.82;53.17;98846.69;1662118;86;21679;-75